Time;durP1;ratioP1;P1;durP2;ratioP2;P2;SDS_P1;SDS_P2;PMS_P1;PMS_P2;Temp;Humidity;BMP_temperature;BMP_pressure;BME280_temperature;BME280_humidity;BME280_pressure;Samples;Min_cycle;Max_cycle;Signal;HPM_P1;HPM_P2
2021/07/18 00:00:40;;;;;;;12.05;6.47;;;17.40;99.90;;;;;;5093824;28;20035;-69
2021/07/18 00:03:06;;;;;;;10.80;6.32;;;17.30;99.90;;;;;;5094049;28;20044;-69
2021/07/18 00:05:33;;;;;;;10.70;6.40;;;17.30;99.90;;;;;;5093704;28;20499;-69
2021/07/18 00:08:05;;;;;;;13.63;6.40;;;17.30;99.90;;;;;;5093000;28;20082;-69
2021/07/18 00:10:32;;;;;;;11.98;7.03;;;17.20;99.90;;;;;;5093932;28;20130;-69
2021/07/18 00:12:58;;;;;;;12.75;6.55;;;17.20;99.90;;;;;;5093454;28;20051;-69
2021/07/18 00:15:23;;;;;;;12.25;7.88;;;17.20;99.90;;;;;;5093749;28;20039;-69
2021/07/18 00:17:49;;;;;;;11.95;6.95;;;17.10;99.90;;;;;;5093892;28;20036;-69
2021/07/18 00:20:16;;;;;;;14.13;7.65;;;17.10;99.90;;;;;;5093177;28;20067;-69
2021/07/18 00:22:42;;;;;;;13.02;7.75;;;17.10;99.90;;;;;;5093488;28;20588;-69
2021/07/18 00:25:09;;;;;;;17.45;7.68;;;17.10;99.90;;;;;;5093458;28;20495;-69
2021/07/18 00:27:35;;;;;;;14.25;7.95;;;17.00;99.90;;;;;;5093365;28;20119;-69
2021/07/18 00:30:01;;;;;;;14.80;8.00;;;17.10;99.90;;;;;;5093297;28;20488;-69
2021/07/18 00:32:27;;;;;;;13.82;8.20;;;17.00;99.90;;;;;;5093226;28;20048;-69
2021/07/18 00:34:53;;;;;;;15.68;8.30;;;17.00;99.90;;;;;;5093551;28;20047;-69
2021/07/18 00:37:18;;;;;;;14.77;8.00;;;17.00;99.90;;;;;;5093630;28;20512;-69
2021/07/18 00:39:44;;;;;;;13.43;7.93;;;17.00;99.90;;;;;;5093198;28;20484;-69
2021/07/18 00:42:10;;;;;;;13.65;7.57;;;17.00;99.90;;;;;;5093372;28;20089;-69
2021/07/18 00:44:35;;;;;;;15.60;8.27;;;17.00;99.90;;;;;;5093278;28;20042;-69
2021/07/18 00:47:01;;;;;;;21.15;8.40;;;17.00;99.90;;;;;;5093226;28;20047;-69
2021/07/18 00:49:27;;;;;;;17.25;8.77;;;17.00;99.90;;;;;;5092031;28;20039;-69
2021/07/18 00:51:53;;;;;;;18.63;9.13;;;16.90;99.90;;;;;;5093190;28;20043;-69
2021/07/18 00:54:18;;;;;;;19.83;9.05;;;17.00;99.90;;;;;;5093357;28;20621;-69
2021/07/18 00:56:44;;;;;;;14.48;8.43;;;17.00;99.90;;;;;;5093282;28;20085;-69
2021/07/18 00:59:10;;;;;;;15.57;8.20;;;16.90;99.90;;;;;;5093140;28;20044;-69
2021/07/18 01:01:36;;;;;;;15.10;8.35;;;16.90;99.90;;;;;;5095226;28;20036;-69
2021/07/18 01:04:03;;;;;;;17.10;8.32;;;16.90;99.90;;;;;;5097270;28;20494;-69
2021/07/18 01:06:28;;;;;;;16.13;8.15;;;16.90;99.90;;;;;;5097130;28;20063;-69
2021/07/18 01:08:54;;;;;;;14.73;8.13;;;16.90;99.90;;;;;;5096962;28;20036;-69
2021/07/18 01:11:20;;;;;;;13.82;6.88;;;16.90;99.90;;;;;;5096966;28;20043;-69
2021/07/18 01:13:46;;;;;;;15.93;8.50;;;16.90;99.90;;;;;;5096811;28;20044;-69
2021/07/18 01:16:12;;;;;;;21.83;9.20;;;16.90;99.90;;;;;;5097058;28;20399;-69
2021/07/18 01:18:41;;;;;;;16.05;8.27;;;16.90;99.90;;;;;;5096720;28;20040;-69
2021/07/18 01:21:08;;;;;;;12.88;7.68;;;16.90;99.90;;;;;;5096618;28;20438;-69
2021/07/18 01:23:36;;;;;;;14.23;8.32;;;16.80;99.90;;;;;;5096984;28;20504;-69
2021/07/18 01:26:02;;;;;;;14.90;9.30;;;16.80;99.90;;;;;;5097254;28;20410;-69
2021/07/18 01:28:28;;;;;;;18.58;8.68;;;16.80;99.90;;;;;;5096812;28;20044;-69
2021/07/18 01:30:53;;;;;;;15.70;9.50;;;16.80;99.90;;;;;;5096444;28;20040;-69
2021/07/18 01:33:19;;;;;;;16.48;9.25;;;16.80;99.90;;;;;;5096838;28;20032;-69
2021/07/18 01:35:45;;;;;;;18.38;9.20;;;16.80;99.90;;;;;;5096823;28;20089;-69
2021/07/18 01:38:12;;;;;;;15.52;8.70;;;16.80;99.90;;;;;;5097004;28;20441;-69
2021/07/18 01:40:38;;;;;;;17.08;8.77;;;16.80;99.90;;;;;;5096028;28;20468;-69
2021/07/18 01:43:04;;;;;;;15.68;9.43;;;16.80;99.90;;;;;;5096725;28;20044;-69
2021/07/18 01:45:30;;;;;;;17.65;9.23;;;16.80;99.90;;;;;;5096285;28;20040;-69
2021/07/18 01:47:55;;;;;;;18.13;9.85;;;16.80;99.90;;;;;;5096561;28;20108;-69
2021/07/18 01:50:21;;;;;;;19.40;9.55;;;16.80;99.90;;;;;;5096185;28;20066;-69
2021/07/18 01:52:47;;;;;;;19.00;10.38;;;16.80;99.90;;;;;;5096094;28;20032;-69
2021/07/18 01:55:16;;;;;;;18.30;9.55;;;16.80;99.90;;;;;;5096391;28;20395;-69
2021/07/18 01:57:42;;;;;;;16.95;9.95;;;16.80;99.90;;;;;;5096384;28;20040;-69
2021/07/18 02:00:10;;;;;;;19.38;9.98;;;16.80;99.90;;;;;;5095564;28;20097;-69
2021/07/18 02:02:36;;;;;;;20.02;10.10;;;16.70;99.90;;;;;;5096024;28;20072;-69
2021/07/18 02:05:05;;;;;;;19.10;10.18;;;16.70;99.90;;;;;;5096174;28;20040;-69
2021/07/18 02:07:31;;;;;;;21.50;10.25;;;16.70;99.90;;;;;;5096078;28;20396;-69
2021/07/18 02:09:57;;;;;;;17.52;10.38;;;16.70;99.90;;;;;;5095629;28;20070;-69
2021/07/18 02:12:23;;;;;;;19.27;10.63;;;16.70;99.90;;;;;;5095264;28;20040;-69
2021/07/18 02:14:48;;;;;;;13.38;9.45;;;16.70;99.90;;;;;;5095883;28;20047;-69
2021/07/18 02:17:14;;;;;;;19.90;10.43;;;16.70;99.90;;;;;;5096086;28;20036;-69
2021/07/18 02:19:40;;;;;;;18.25;10.10;;;16.70;99.90;;;;;;5095397;28;20408;-69
2021/07/18 02:22:06;;;;;;;16.42;10.48;;;16.70;99.90;;;;;;5096131;28;20048;-69
2021/07/18 02:24:32;;;;;;;18.25;10.00;;;16.70;99.90;;;;;;5095956;28;20040;-69
2021/07/18 02:26:58;;;;;;;21.13;10.30;;;16.70;99.90;;;;;;5095675;28;20036;-68
2021/07/18 02:29:24;;;;;;;18.92;10.55;;;16.70;99.90;;;;;;5095254;28;20392;-69
2021/07/18 02:31:53;;;;;;;21.05;10.52;;;16.60;99.90;;;;;;5095669;28;20040;-69
2021/07/18 02:34:20;;;;;;;22.90;11.00;;;16.70;99.90;;;;;;5095313;28;20055;-69
2021/07/18 02:36:45;;;;;;;25.40;10.65;;;16.70;99.90;;;;;;5095658;28;20051;-69
2021/07/18 02:39:11;;;;;;;17.65;10.57;;;16.60;99.90;;;;;;5094940;28;20036;-69
2021/07/18 02:41:37;;;;;;;26.17;11.07;;;16.60;99.90;;;;;;5095466;28;20040;-69
2021/07/18 02:44:05;;;;;;;21.33;10.63;;;16.60;99.90;;;;;;5095213;28;20396;-69
2021/07/18 02:46:32;;;;;;;17.95;10.10;;;16.60;99.90;;;;;;5095420;28;20460;-69
2021/07/18 02:48:57;;;;;;;20.08;10.00;;;16.60;99.90;;;;;;5094973;28;20047;-69
2021/07/18 02:51:23;;;;;;;18.00;9.75;;;16.60;99.90;;;;;;5095038;28;20036;-69
2021/07/18 02:53:49;;;;;;;20.70;10.50;;;16.60;99.90;;;;;;5094933;28;20040;-69
2021/07/18 02:56:14;;;;;;;20.23;10.77;;;16.60;99.90;;;;;;5093869;28;20426;-69
2021/07/18 02:58:40;;;;;;;21.25;11.00;;;16.60;99.90;;;;;;5094671;28;20067;-69
2021/07/18 03:01:06;;;;;;;24.73;11.63;;;16.60;99.90;;;;;;5093581;28;20480;-69
2021/07/18 03:03:32;;;;;;;22.13;11.80;;;16.60;99.90;;;;;;5095262;28;20384;-69
2021/07/18 03:05:58;;;;;;;17.48;11.18;;;16.60;99.90;;;;;;5094915;28;20050;-69
2021/07/18 03:08:23;;;;;;;16.00;10.57;;;16.60;99.90;;;;;;5094604;28;20039;-69
2021/07/18 03:10:49;;;;;;;20.48;10.98;;;16.50;99.90;;;;;;5094844;28;20081;-69
2021/07/18 03:13:15;;;;;;;25.15;12.27;;;16.50;99.90;;;;;;5094582;28;20415;-69
2021/07/18 03:15:40;;;;;;;18.60;10.05;;;16.50;99.90;;;;;;5094658;28;20044;-69
2021/07/18 03:18:08;;;;;;;19.60;11.07;;;16.50;99.90;;;;;;5094812;28;20038;-69
2021/07/18 03:20:34;;;;;;;22.90;11.68;;;16.50;99.90;;;;;;5094179;28;20502;-69
2021/07/18 03:23:00;;;;;;;20.73;11.40;;;16.50;99.90;;;;;;5094849;28;20115;-69
2021/07/18 03:25:25;;;;;;;24.95;12.48;;;16.50;99.90;;;;;;5094449;28;20063;-69
2021/07/18 03:27:51;;;;;;;18.90;10.57;;;16.50;99.90;;;;;;5094941;28;20039;-69
2021/07/18 03:30:19;;;;;;;22.48;12.32;;;16.50;99.90;;;;;;5094143;28;20040;-69
2021/07/18 03:32:45;;;;;;;20.45;11.27;;;16.50;99.90;;;;;;5094374;28;20047;-69
2021/07/18 03:35:12;;;;;;;23.05;11.38;;;16.50;99.90;;;;;;5094435;28;20044;-69
2021/07/18 03:37:38;;;;;;;19.55;11.25;;;16.40;99.90;;;;;;5094685;28;20047;-69
2021/07/18 03:40:05;;;;;;;22.35;12.95;;;16.40;99.90;;;;;;5094019;28;20074;-69
2021/07/18 03:42:31;;;;;;;21.98;11.57;;;16.40;99.90;;;;;;5094238;28;20044;-69
2021/07/18 03:44:57;;;;;;;18.35;11.65;;;16.40;99.90;;;;;;5094158;28;20038;-69
2021/07/18 03:47:22;;;;;;;19.95;11.63;;;16.40;99.90;;;;;;5094121;28;20032;-69
2021/07/18 03:49:48;;;;;;;19.95;11.10;;;16.40;99.90;;;;;;5093694;28;20043;-68
2021/07/18 03:52:14;;;;;;;19.92;10.88;;;16.40;99.90;;;;;;5093928;28;20040;-69
2021/07/18 03:54:39;;;;;;;21.63;11.27;;;16.40;99.90;;;;;;5094594;28;20048;-69
2021/07/18 03:57:05;;;;;;;20.52;11.77;;;16.40;99.90;;;;;;5093864;28;20397;-69
2021/07/18 03:59:31;;;;;;;21.05;11.80;;;16.40;99.90;;;;;;5094050;28;20127;-69
2021/07/18 04:01:57;;;;;;;21.35;11.88;;;16.40;99.90;;;;;;5093818;28;20082;-69
2021/07/18 04:04:22;;;;;;;25.55;12.77;;;16.40;99.90;;;;;;5094308;28;20044;-69
2021/07/18 04:06:48;;;;;;;25.38;13.40;;;16.50;99.90;;;;;;5094094;28;20127;-69
2021/07/18 04:09:14;;;;;;;22.35;12.25;;;16.50;99.90;;;;;;5093356;28;20484;-69
2021/07/18 04:11:40;;;;;;;20.17;11.85;;;16.50;99.90;;;;;;5093796;28;20039;-69
2021/07/18 04:14:06;;;;;;;23.20;12.52;;;16.50;99.90;;;;;;5093627;28;20431;-69
2021/07/18 04:16:32;;;;;;;22.73;12.05;;;16.50;99.90;;;;;;5094056;28;20040;-69
2021/07/18 04:18:58;;;;;;;20.75;12.20;;;16.50;99.90;;;;;;5093447;28;20062;-69
2021/07/18 04:21:23;;;;;;;20.33;12.75;;;16.50;99.90;;;;;;5094045;28;20464;-69
2021/07/18 04:23:49;;;;;;;19.65;11.90;;;16.50;99.90;;;;;;5093510;28;20380;-69
2021/07/18 04:26:15;;;;;;;21.98;12.82;;;16.50;99.90;;;;;;5093426;28;20039;-69
2021/07/18 04:28:41;;;;;;;20.40;12.60;;;16.50;99.90;;;;;;5093161;28;20032;-69
2021/07/18 04:31:07;;;;;;;20.27;12.65;;;16.60;99.90;;;;;;5093472;28;20055;-69
2021/07/18 04:33:32;;;;;;;19.80;13.13;;;16.60;99.90;;;;;;5093558;28;20119;-69
2021/07/18 04:35:58;;;;;;;21.08;13.18;;;16.60;99.90;;;;;;5095680;28;20036;-69
2021/07/18 04:38:24;;;;;;;22.38;12.90;;;16.60;99.90;;;;;;5100298;28;20035;-68
2021/07/18 04:40:49;;;;;;;19.30;12.27;;;16.60;99.90;;;;;;5100132;28;20036;-69
2021/07/18 04:43:15;;;;;;;25.70;12.90;;;16.60;99.90;;;;;;5100199;28;20044;-69
2021/07/18 04:45:41;;;;;;;23.40;11.40;;;16.70;99.90;;;;;;5100576;28;20162;-69
2021/07/18 04:48:07;;;;;;;17.95;12.07;;;16.70;99.90;;;;;;5100348;28;20067;-69
2021/07/18 04:50:33;;;;;;;18.48;11.60;;;16.70;99.90;;;;;;5100306;28;20035;-69
2021/07/18 04:52:59;;;;;;;20.55;11.77;;;16.80;99.90;;;;;;5100130;28;20050;-69
2021/07/18 04:55:24;;;;;;;17.67;11.45;;;16.90;99.90;;;;;;5099906;28;20032;-69
2021/07/18 04:57:50;;;;;;;20.30;11.57;;;17.00;99.90;;;;;;5100207;28;20040;-69
2021/07/18 05:00:20;;;;;;;23.90;12.75;;;17.10;99.90;;;;;;5099657;28;20036;-69
2021/07/18 05:02:46;;;;;;;16.63;10.43;;;17.20;99.90;;;;;;5100182;28;20048;-69
2021/07/18 05:05:14;;;;;;;18.02;10.90;;;17.30;99.90;;;;;;5099751;28;20044;-69
2021/07/18 05:07:57;;;;;;;18.67;11.13;;;17.40;99.90;;;;;;5099808;28;20051;-69
2021/07/18 05:10:24;;;;;;;19.45;10.88;;;17.60;99.90;;;;;;5100052;28;20101;-69
2021/07/18 05:12:52;;;;;;;18.02;10.00;;;17.80;99.90;;;;;;5099963;28;20040;-69
2021/07/18 05:15:20;;;;;;;19.00;10.70;;;17.90;99.90;;;;;;5099792;28;20114;-69
2021/07/18 05:17:46;;;;;;;16.65;9.63;;;18.00;99.90;;;;;;5099909;28;20051;-69
2021/07/18 05:20:14;;;;;;;16.58;9.80;;;18.20;99.90;;;;;;5099299;28;20040;-69
2021/07/18 05:22:40;;;;;;;15.73;9.85;;;18.30;99.90;;;;;;5099851;28;20135;-69
2021/07/18 05:25:09;;;;;;;14.27;8.88;;;18.50;99.90;;;;;;5099969;28;20063;-69
2021/07/18 05:27:35;;;;;;;17.23;8.80;;;18.60;99.90;;;;;;5099572;28;20404;-69
2021/07/18 05:30:01;;;;;;;14.80;9.30;;;18.80;99.90;;;;;;5099487;28;20494;-69
2021/07/18 05:32:27;;;;;;;13.55;7.60;;;18.90;99.90;;;;;;5099422;28;20581;-69
2021/07/18 05:34:52;;;;;;;10.85;7.60;;;19.10;99.90;;;;;;5099690;28;20046;-69
2021/07/18 05:37:18;;;;;;;10.98;7.60;;;19.20;99.90;;;;;;5099791;28;20055;-69
2021/07/18 05:39:44;;;;;;;12.82;8.50;;;19.40;99.90;;;;;;5099498;28;20071;-69
2021/07/18 05:42:10;;;;;;;10.35;7.40;;;19.60;99.90;;;;;;5099803;28;20534;-69
2021/07/18 05:44:36;;;;;;;13.45;7.35;;;19.70;99.90;;;;;;5099621;28;20047;-69
2021/07/18 05:47:01;;;;;;;12.23;7.78;;;19.90;99.90;;;;;;5098179;28;20388;-69
2021/07/18 05:49:27;;;;;;;9.38;6.85;;;20.00;99.90;;;;;;5095572;28;20114;-69
2021/07/18 05:51:53;;;;;;;10.55;7.20;;;20.10;99.90;;;;;;5096328;28;20433;-69
2021/07/18 05:54:19;;;;;;;10.27;7.25;;;20.20;99.90;;;;;;5096531;28;20081;-69
2021/07/18 05:56:45;;;;;;;13.13;7.22;;;20.30;99.90;;;;;;5096080;28;20063;-70
2021/07/18 05:59:10;;;;;;;10.23;6.43;;;20.50;99.90;;;;;;5095987;28;20036;-68
2021/07/18 06:01:36;;;;;;;10.93;7.20;;;20.50;99.90;;;;;;5096037;28;20047;-68
2021/07/18 06:04:02;;;;;;;11.20;7.20;;;20.60;99.90;;;;;;5096526;28;20054;-69
2021/07/18 06:06:28;;;;;;;11.48;6.90;;;20.60;99.90;;;;;;5096119;28;20051;-69
2021/07/18 06:08:54;;;;;;;9.80;6.95;;;20.70;99.90;;;;;;5095770;28;20059;-68
2021/07/18 06:11:22;;;;;;;11.85;6.97;;;20.80;99.90;;;;;;5096098;28;20472;-69
2021/07/18 06:13:48;;;;;;;11.05;6.32;;;20.90;99.90;;;;;;5095706;28;20381;-69
2021/07/18 06:16:14;;;;;;;10.20;6.80;;;21.00;99.90;;;;;;5095899;28;20047;-69
2021/07/18 06:18:40;;;;;;;9.05;6.38;;;21.10;99.90;;;;;;5095387;28;20040;-69
2021/07/18 06:21:05;;;;;;;9.05;6.97;;;21.30;99.90;;;;;;5096138;28;20376;-69
2021/07/18 06:23:31;;;;;;;11.48;6.47;;;21.40;99.90;;;;;;5096210;28;20392;-69
2021/07/18 06:25:59;;;;;;;12.20;6.57;;;21.50;99.90;;;;;;5095627;28;20047;-69
2021/07/18 06:28:25;;;;;;;9.20;6.63;;;21.50;99.90;;;;;;5095656;28;20040;-69
2021/07/18 06:30:54;;;;;;;9.60;6.10;;;21.60;99.90;;;;;;5095178;28;20040;-69
2021/07/18 06:33:20;;;;;;;7.22;6.05;;;21.70;99.90;;;;;;5095859;28;20118;-69
2021/07/18 06:35:45;;;;;;;13.48;6.90;;;21.70;99.90;;;;;;5095569;28;20083;-69
2021/07/18 06:38:11;;;;;;;9.35;5.63;;;21.80;99.90;;;;;;5095448;28;20032;-69
2021/07/18 06:40:37;;;;;;;9.75;6.30;;;21.90;99.90;;;;;;5095158;28;20075;-69
2021/07/18 06:43:03;;;;;;;10.50;6.00;;;22.00;99.90;;;;;;5095495;28;20048;-68
2021/07/18 06:45:28;;;;;;;9.50;5.97;;;22.10;99.90;;;;;;5095308;28;20139;-69
2021/07/18 06:47:54;;;;;;;8.93;6.15;;;22.20;99.90;;;;;;5095383;28;20062;-69
2021/07/18 06:50:20;;;;;;;11.73;6.03;;;22.30;99.90;;;;;;5095030;28;20506;-69
2021/07/18 06:52:46;;;;;;;9.52;5.05;;;22.50;99.90;;;;;;5095289;28;20109;-69
2021/07/18 06:55:12;;;;;;;8.07;5.28;;;22.40;99.90;;;;;;5095226;28;20049;-69
2021/07/18 06:57:38;;;;;;;10.05;6.20;;;22.50;99.90;;;;;;5095017;28;20071;-69
2021/07/18 07:00:06;;;;;;;10.50;5.68;;;22.60;99.90;;;;;;5094375;28;20040;-68
2021/07/18 07:02:35;;;;;;;8.93;5.35;;;22.70;99.90;;;;;;5095203;28;20064;-68
2021/07/18 07:05:01;;;;;;;10.07;5.32;;;22.70;99.90;;;;;;5094914;28;20097;-68
2021/07/18 07:07:26;;;;;;;7.70;4.72;;;22.70;99.90;;;;;;5095009;28;20040;-68
2021/07/18 07:09:53;;;;;;;9.57;5.50;;;22.80;99.90;;;;;;5094428;28;20050;-68
2021/07/18 07:12:18;;;;;;;9.25;4.28;;;22.80;99.90;;;;;;5094883;28;20118;-68
2021/07/18 07:14:45;;;;;;;7.32;5.10;;;23.00;99.90;;;;;;5095122;28;20040;-68
2021/07/18 07:17:10;;;;;;;5.07;3.83;;;23.10;99.90;;;;;;5094797;28;20112;-68
2021/07/18 07:19:36;;;;;;;9.50;4.53;;;23.20;99.90;;;;;;5093582;28;20064;-68
2021/07/18 07:22:15;;;;;;;6.65;4.03;;;23.50;99.90;;;;;;5094603;28;20036;-68
2021/07/18 07:24:40;;;;;;;6.72;3.53;;;23.70;99.90;;;;;;5094891;28;20036;-68
2021/07/18 07:27:07;;;;;;;6.97;4.50;;;23.90;99.90;;;;;;5101167;28;20086;-68
2021/07/18 07:29:39;;;;;;;4.75;3.03;;;24.00;99.90;;;;;;5114749;28;20043;-68
2021/07/18 07:32:06;;;;;;;4.30;3.40;;;24.30;99.90;;;;;;5115126;28;20046;-68
2021/07/18 07:34:32;;;;;;;5.65;3.53;;;24.40;99.90;;;;;;5114533;28;20040;-67
2021/07/18 07:36:58;;;;;;;8.98;3.10;;;24.60;99.90;;;;;;5114547;28;20040;-68
2021/07/18 07:39:24;;;;;;;6.55;3.63;;;24.90;99.90;;;;;;5114306;28;20092;-68
2021/07/18 07:41:49;;;;;;;6.80;3.33;;;24.80;99.90;;;;;;5114328;28;20055;-69
2021/07/18 07:44:17;;;;;;;6.40;3.13;;;24.80;99.90;;;;;;5114298;28;20046;-69
2021/07/18 07:46:43;;;;;;;3.38;2.78;;;24.90;99.90;;;;;;5114626;28;20044;-69
2021/07/18 07:49:09;;;;;;;4.72;2.78;;;25.10;99.90;;;;;;5113879;28;20092;-69
2021/07/18 07:51:35;;;;;;;6.45;3.35;;;25.20;99.90;;;;;;5114195;28;20595;-69
2021/07/18 07:54:03;;;;;;;6.97;3.25;;;25.20;99.90;;;;;;5114203;28;20395;-68
2021/07/18 07:56:29;;;;;;;4.50;2.63;;;25.30;99.90;;;;;;5114042;28;20165;-68
2021/07/18 07:58:55;;;;;;;3.95;2.55;;;25.30;99.90;;;;;;5113523;28;20043;-69
2021/07/18 08:01:21;;;;;;;5.20;3.22;;;25.40;99.90;;;;;;5114445;28;20036;-70
2021/07/18 08:03:46;;;;;;;4.32;3.08;;;25.40;99.90;;;;;;5114304;28;20380;-68
2021/07/18 08:06:12;;;;;;;4.78;2.95;;;25.40;99.90;;;;;;5112809;28;20035;-68
2021/07/18 08:08:38;;;;;;;5.82;2.90;;;25.40;99.90;;;;;;5114214;28;20048;-68
2021/07/18 08:11:05;;;;;;;7.90;2.58;;;25.60;99.90;;;;;;5113620;28;20070;-70
2021/07/18 08:13:31;;;;;;;5.47;2.78;;;25.60;99.90;;;;;;5113722;28;20042;-68
2021/07/18 08:15:56;;;;;;;5.03;2.97;;;25.60;99.90;;;;;;5113942;28;20043;-69
2021/07/18 08:18:22;;;;;;;7.03;3.28;;;25.70;99.90;;;;;;5114209;28;20487;-68
2021/07/18 08:20:48;;;;;;;7.50;3.00;;;25.70;99.90;;;;;;5113484;28;20101;-68
2021/07/18 08:23:13;;;;;;;6.88;3.15;;;25.80;99.90;;;;;;5113954;28;20352;-68
2021/07/18 08:25:39;;;;;;;5.15;2.40;;;26.00;99.90;;;;;;5114207;28;20110;-68
2021/07/18 08:28:05;;;;;;;7.72;2.97;;;25.90;99.90;;;;;;5113868;28;20120;-68
2021/07/18 08:30:37;;;;;;;6.07;2.97;;;26.00;99.80;;;;;;5113407;28;20036;-68
2021/07/18 08:33:03;;;;;;;5.28;2.92;;;26.10;99.50;;;;;;5114246;28;20043;-68
2021/07/18 08:35:29;;;;;;;4.32;2.53;;;26.10;99.60;;;;;;5114110;28;20047;-68
2021/07/18 08:38:04;;;;;;;4.13;2.10;;;26.20;99.90;;;;;;5114155;28;20074;-68
2021/07/18 08:40:34;;;;;;;8.05;2.65;;;26.30;99.90;;;;;;5113432;28;20075;-68
2021/07/18 08:43:01;;;;;;;4.53;2.22;;;26.40;99.90;;;;;;5113743;28;20108;-67
2021/07/18 08:45:27;;;;;;;5.90;3.42;;;26.50;99.00;;;;;;5112573;28;20070;-67
2021/07/18 08:47:53;;;;;;;5.15;2.35;;;26.40;98.70;;;;;;5113587;28;20114;-67
2021/07/18 08:50:18;;;;;;;3.72;2.80;;;26.50;98.20;;;;;;5113115;28;20079;-68
2021/07/18 08:52:54;;;;;;;3.80;1.85;;;26.50;98.30;;;;;;5113508;28;20235;-67
2021/07/18 08:55:22;;;;;;;7.93;2.55;;;26.50;98.40;;;;;;5113792;28;20050;-68
2021/07/18 08:57:48;;;;;;;4.78;1.98;;;26.60;98.60;;;;;;5113847;28;20040;-68
2021/07/18 09:00:14;;;;;;;7.43;2.42;;;26.50;97.70;;;;;;5113525;28;20063;-68
2021/07/18 09:02:41;;;;;;;4.45;1.92;;;26.40;97.60;;;;;;5113528;28;20058;-68
2021/07/18 09:05:07;;;;;;;5.25;1.90;;;26.60;97.60;;;;;;5113723;28;20047;-68
2021/07/18 09:07:50;;;;;;;3.90;1.80;;;26.60;97.70;;;;;;5113488;28;20036;-69
2021/07/18 09:10:37;;;;;;;3.45;2.08;;;26.70;97.10;;;;;;5113194;28;20128;-68
2021/07/18 09:13:09;;;;;;;3.67;1.80;;;26.70;96.80;;;;;;5113356;28;20093;-68
2021/07/18 09:15:52;;;;;;;4.20;2.42;;;26.80;97.10;;;;;;5113282;28;20475;-69
2021/07/18 09:18:25;;;;;;;5.10;2.40;;;26.70;97.20;;;;;;5113676;28;20035;-69
2021/07/18 09:20:55;;;;;;;3.60;1.92;;;26.80;96.80;;;;;;5113067;28;20035;-68
2021/07/18 09:23:25;;;;;;;5.35;2.35;;;26.60;96.60;;;;;;5116661;28;20047;-69
2021/07/18 09:26:12;;;;;;;4.97;2.42;;;26.80;98.10;;;;;;5117541;28;20044;-68
2021/07/18 09:28:38;;;;;;;4.82;2.50;;;26.90;97.50;;;;;;5116650;28;20042;-68
2021/07/18 09:31:30;;;;;;;6.13;2.80;;;26.90;97.00;;;;;;5117625;28;20044;-68
2021/07/18 09:34:12;;;;;;;5.65;2.95;;;27.00;97.80;;;;;;5116906;28;20495;-68
2021/07/18 09:36:38;;;;;;;3.50;2.40;;;27.00;96.40;;;;;;5117058;28;20036;-69
2021/07/18 09:39:12;;;;;;;5.15;2.42;;;26.90;96.10;;;;;;5116640;28;20038;-68
2021/07/18 09:41:38;;;;;;;3.55;2.28;;;26.80;96.50;;;;;;5117044;28;20085;-68
2021/07/18 09:44:04;;;;;;;5.22;2.40;;;26.80;97.40;;;;;;5116875;28;20052;-68
2021/07/18 09:46:32;;;;;;;4.57;2.13;;;26.40;96.60;;;;;;5116817;28;20217;-67
2021/07/18 09:49:00;;;;;;;7.15;2.60;;;26.80;97.20;;;;;;5116617;28;20039;-68
2021/07/18 09:51:26;;;;;;;6.20;1.90;;;27.00;97.40;;;;;;5116820;28;20427;-68
2021/07/18 09:54:12;;;;;;;4.55;2.42;;;27.00;96.50;;;;;;5116939;28;20513;-68
2021/07/18 09:56:38;;;;;;;3.55;2.00;;;26.90;96.90;;;;;;5116946;28;20063;-68
2021/07/18 09:59:05;;;;;;;6.05;2.17;;;26.70;97.20;;;;;;5116733;28;20043;-68
2021/07/18 10:01:33;;;;;;;4.30;1.63;;;26.60;96.80;;;;;;5116618;28;20425;-68
2021/07/18 10:04:00;;;;;;;6.75;1.88;;;26.70;97.70;;;;;;5116600;28;20488;-68
2021/07/18 10:06:30;;;;;;;3.17;1.60;;;26.70;96.70;;;;;;5116820;28;20044;-68
2021/07/18 10:09:02;;;;;;;2.47;1.58;;;26.70;96.70;;;;;;5116409;28;20145;-68
2021/07/18 10:11:29;;;;;;;2.83;2.00;;;26.70;96.60;;;;;;5115501;28;20050;-67
2021/07/18 10:13:58;;;;;;;4.97;1.60;;;26.60;97.10;;;;;;5116135;28;20414;-68
2021/07/18 10:16:25;;;;;;;2.80;1.40;;;26.70;96.90;;;;;;5116529;28;20063;-68
2021/07/18 10:18:53;;;;;;;3.78;1.73;;;26.80;97.30;;;;;;5116311;28;20047;-67
2021/07/18 10:21:21;;;;;;;3.17;1.60;;;26.80;96.70;;;;;;5116547;28;20077;-68
2021/07/18 10:23:55;;;;;;;4.43;1.50;;;26.70;96.60;;;;;;5116265;28;20047;-68
2021/07/18 10:26:27;;;;;;;4.53;2.28;;;26.50;97.30;;;;;;5116059;28;20043;-68
2021/07/18 10:28:54;;;;;;;3.80;1.73;;;26.60;97.60;;;;;;5098094;28;20044;-69
2021/07/18 10:31:32;;;;;;;2.08;1.42;;;26.10;97.00;;;;;;5115794;28;20285;-68
2021/07/18 10:34:01;;;;;;;5.75;2.00;;;26.30;96.90;;;;;;5115285;28;20089;-67
2021/07/18 10:36:27;;;;;;;3.03;1.85;;;26.30;96.60;;;;;;5116060;28;20107;-68
2021/07/18 10:38:53;;;;;;;5.50;1.70;;;26.10;97.00;;;;;;5115535;28;20042;-68
2021/07/18 10:41:39;;;;;;;3.25;1.70;;;26.20;97.00;;;;;;5115877;28;20040;-68
2021/07/18 10:44:15;;;;;;;5.35;1.45;;;25.90;97.10;;;;;;5108189;28;20054;-68
2021/07/18 10:46:41;;;;;;;3.10;2.13;;;25.90;98.00;;;;;;5116238;28;20046;-68
2021/07/18 10:49:12;;;;;;;5.57;1.95;;;25.90;97.60;;;;;;5115304;28;20039;-67
2021/07/18 10:51:39;;;;;;;2.53;1.63;;;25.50;97.90;;;;;;5114892;28;20117;-68
2021/07/18 10:54:19;;;;;;;6.45;2.58;;;25.40;99.00;;;;;;5115758;28;20036;-68
2021/07/18 10:56:47;;;;;;;5.03;2.08;;;25.50;99.80;;;;;;5114757;28;20036;-68
2021/07/18 10:59:36;;;;;;;3.65;1.75;;;25.40;99.90;;;;;;5115030;28;20059;-69
2021/07/18 11:02:10;;;;;;;3.90;2.05;;;25.20;99.90;;;;;;5114857;28;20036;-69
2021/07/18 11:04:42;;;;;;;3.20;1.83;;;25.40;99.90;;;;;;5096837;28;20056;-69
2021/07/18 11:07:20;;;;;;;2.72;1.30;;;25.60;98.30;;;;;;5094812;28;20043;-68
2021/07/18 11:10:09;;;;;;;3.80;1.95;;;25.60;98.10;;;;;;5094973;28;20093;-69
2021/07/18 11:12:49;;;;;;;6.15;1.92;;;25.40;98.50;;;;;;5089214;28;20048;-69
2021/07/18 11:15:15;;;;;;;4.35;2.17;;;25.10;99.60;;;;;;5095159;28;20048;-69
2021/07/18 11:18:00;;;;;;;4.80;2.13;;;25.00;99.90;;;;;;5094983;28;20511;-69
2021/07/18 11:20:48;;;;;;;5.35;2.95;;;24.90;99.90;;;;;;5094359;28;20117;-69
2021/07/18 11:23:18;;;;;;;3.40;1.80;;;24.80;99.90;;;;;;5094642;28;20438;-68
2021/07/18 11:25:46;;;;;;;3.35;2.00;;;24.70;99.90;;;;;;5094687;28;20036;-69
2021/07/18 11:28:35;;;;;;;4.95;2.28;;;24.90;99.90;;;;;;5094947;28;20028;-69
2021/07/18 11:31:10;;;;;;;5.57;2.20;;;25.10;99.90;;;;;;5094669;28;20117;-68
2021/07/18 11:33:45;;;;;;;3.55;1.77;;;25.40;99.90;;;;;;5094404;28;20040;-69
2021/07/18 11:36:12;;;;;;;4.38;2.83;;;25.10;99.90;;;;;;5093189;28;20426;-69
2021/07/18 11:38:38;;;;;;;5.03;2.33;;;25.30;99.90;;;;;;5094016;28;20111;-68
2021/07/18 11:41:36;;;;;;;5.68;2.80;;;25.30;99.90;;;;;;5094772;28;20173;-69
2021/07/18 11:44:03;;;;;;;4.00;1.92;;;25.20;99.30;;;;;;5059857;28;20511;-69
2021/07/18 11:46:37;;;;;;;5.22;2.30;;;25.00;99.90;;;;;;5093829;28;20060;-68
2021/07/18 11:49:04;;;;;;;4.13;2.13;;;25.00;99.90;;;;;;5094241;28;20068;-69
2021/07/18 11:51:32;;;;;;;6.00;2.72;;;25.10;99.90;;;;;;5094388;28;20119;-68
2021/07/18 11:53:59;;;;;;;7.55;2.85;;;25.00;99.90;;;;;;5094071;28;20475;-69
2021/07/18 11:56:34;;;;;;;5.70;2.80;;;25.00;99.90;;;;;;5093021;28;20036;-68
2021/07/18 11:59:06;;;;;;;4.20;2.40;;;25.10;99.30;;;;;;5094174;28;20036;-68
2021/07/18 12:01:33;;;;;;;6.57;2.77;;;25.00;99.50;;;;;;5094074;28;20083;-69
2021/07/18 12:03:59;;;;;;;6.57;2.60;;;24.90;99.90;;;;;;5093652;28;20286;-69
2021/07/18 12:06:32;;;;;;;4.88;2.05;;;24.80;99.90;;;;;;5093983;28;20036;-69
2021/07/18 12:08:59;;;;;;;;;;;25.00;99.90;;;;;;5094085;28;20484;-69
2021/07/18 12:11:27;;;;;;;5.63;2.55;;;24.90;99.90;;;;;;5093990;28;20307;-68
2021/07/18 12:13:53;;;;;;;6.10;2.42;;;24.80;99.90;;;;;;5093802;28;20040;-67
2021/07/18 12:16:22;;;;;;;6.38;2.53;;;24.90;99.90;;;;;;5093768;28;20036;-68
2021/07/18 12:18:53;;;;;;;7.43;2.15;;;24.80;99.90;;;;;;5093225;28;20043;-68
2021/07/18 12:21:31;;;;;;;3.75;2.28;;;24.80;99.90;;;;;;5093562;28;20044;-68
2021/07/18 12:24:28;;;;;;;4.18;2.00;;;24.70;99.50;;;;;;5093513;28;20040;-69
2021/07/18 12:26:53;;;;;;;3.47;2.40;;;24.60;99.90;;;;;;5093527;28;20160;-68
2021/07/18 12:29:20;;;;;;;3.28;2.20;;;24.60;99.90;;;;;;5091985;28;20120;-68
2021/07/18 12:31:49;;;;;;;6.45;2.22;;;24.60;99.90;;;;;;5093526;28;20046;-68
2021/07/18 12:34:16;;;;;;;6.22;2.53;;;24.40;99.90;;;;;;5093831;28;20040;-68
2021/07/18 12:37:08;;;;;;;5.43;2.17;;;24.50;99.90;;;;;;5093361;28;20151;-69
2021/07/18 12:39:37;;;;;;;7.57;2.58;;;24.40;99.90;;;;;;5093546;28;20064;-68
2021/07/18 12:42:08;;;;;;;5.57;3.17;;;24.50;99.90;;;;;;5093549;28;20046;-68